sensor_id;sensor_type;location;lat;lon;timestamp;pressure;altitude;pressure_sealevel;temperature;humidity
4590;BME280;2307;48.448;9.216;2023-02-20T00:01:31;96511.44;;;6.89;100.00
4590;BME280;2307;48.448;9.216;2023-02-20T00:03:58;96514.44;;;6.86;100.00
4590;BME280;2307;48.448;9.216;2023-02-20T00:06:24;96506.75;;;6.85;100.00
4590;BME280;2307;48.448;9.216;2023-02-20T00:08:51;96504.19;;;6.91;100.00
4590;BME280;2307;48.448;9.216;2023-02-20T00:11:17;96505.13;;;6.84;100.00
4590;BME280;2307;48.448;9.216;2023-02-20T00:13:44;96496.59;;;6.82;100.00
4590;BME280;2307;48.448;9.216;2023-02-20T00:16:12;96497.34;;;6.76;100.00
4590;BME280;2307;48.448;9.216;2023-02-20T00:18:38;96509.56;;;6.83;100.00
4590;BME280;2307;48.448;9.216;2023-02-20T00:21:04;96508.56;;;6.84;100.00
4590;BME280;2307;48.448;9.216;2023-02-20T00:23:31;96511.66;;;6.88;100.00
4590;BME280;2307;48.448;9.216;2023-02-20T00:25:58;96522.50;;;6.85;100.00
4590;BME280;2307;48.448;9.216;2023-02-20T00:28:24;96510.38;;;6.84;100.00
4590;BME280;2307;48.448;9.216;2023-02-20T00:30:50;96513.84;;;6.84;100.00
4590;BME280;2307;48.448;9.216;2023-02-20T00:33:18;96516.00;;;6.81;100.00
4590;BME280;2307;48.448;9.216;2023-02-20T00:35:45;96513.38;;;6.81;100.00
4590;BME280;2307;48.448;9.216;2023-02-20T00:38:11;96507.09;;;6.82;100.00
4590;BME280;2307;48.448;9.216;2023-02-20T00:40:37;96511.28;;;6.91;100.00
4590;BME280;2307;48.448;9.216;2023-02-20T00:43:04;96507.56;;;6.85;100.00
4590;BME280;2307;48.448;9.216;2023-02-20T00:45:30;96494.63;;;6.84;100.00
4590;BME280;2307;48.448;9.216;2023-02-20T00:47:56;96499.38;;;6.95;100.00
4590;BME280;2307;48.448;9.216;2023-02-20T00:50:24;96501.03;;;6.96;100.00
4590;BME280;2307;48.448;9.216;2023-02-20T00:52:50;96511.44;;;6.89;100.00
4590;BME280;2307;48.448;9.216;2023-02-20T00:55:17;96503.13;;;6.86;100.00
4590;BME280;2307;48.448;9.216;2023-02-20T00:57:43;96505.13;;;6.84;100.00
4590;BME280;2307;48.448;9.216;2023-02-20T01:00:15;96526.13;;;6.84;100.00
4590;BME280;2307;48.448;9.216;2023-02-20T01:02:42;96524.50;;;6.83;100.00
4590;BME280;2307;48.448;9.216;2023-02-20T01:05:08;96521.50;;;6.86;100.00
4590;BME280;2307;48.448;9.216;2023-02-20T01:07:36;96530.75;;;6.97;100.00
4590;BME280;2307;48.448;9.216;2023-02-20T01:10:02;96537.25;;;6.86;100.00
4590;BME280;2307;48.448;9.216;2023-02-20T01:12:29;96532.28;;;6.91;100.00
4590;BME280;2307;48.448;9.216;2023-02-20T01:14:55;96537.53;;;6.91;100.00
4590;BME280;2307;48.448;9.216;2023-02-20T01:17:21;96538.91;;;6.87;100.00
4590;BME280;2307;48.448;9.216;2023-02-20T01:19:48;96532.72;;;6.94;100.00
4590;BME280;2307;48.448;9.216;2023-02-20T01:22:14;96526.66;;;6.94;100.00
4590;BME280;2307;48.448;9.216;2023-02-20T01:24:42;96522.84;;;6.97;100.00
4590;BME280;2307;48.448;9.216;2023-02-20T01:27:09;96521.22;;;6.95;100.00
4590;BME280;2307;48.448;9.216;2023-02-20T01:29:35;96521.28;;;7.02;100.00
4590;BME280;2307;48.448;9.216;2023-02-20T01:32:02;96513.53;;;6.94;100.00
4590;BME280;2307;48.448;9.216;2023-02-20T01:34:28;96524.03;;;6.94;100.00
4590;BME280;2307;48.448;9.216;2023-02-20T01:36:55;96514.16;;;6.96;100.00
4590;BME280;2307;48.448;9.216;2023-02-20T01:39:21;96522.16;;;6.88;100.00
4590;BME280;2307;48.448;9.216;2023-02-20T01:41:51;96513.63;;;6.86;100.00
4590;BME280;2307;48.448;9.216;2023-02-20T01:44:19;96525.41;;;6.90;100.00
4590;BME280;2307;48.448;9.216;2023-02-20T01:46:47;96511.00;;;6.86;100.00
4590;BME280;2307;48.448;9.216;2023-02-20T01:49:16;96520.69;;;6.85;100.00
4590;BME280;2307;48.448;9.216;2023-02-20T01:51:45;96509.13;;;6.80;100.00
4590;BME280;2307;48.448;9.216;2023-02-20T01:54:13;96512.34;;;6.82;100.00
4590;BME280;2307;48.448;9.216;2023-02-20T01:56:40;96502.22;;;6.79;100.00
4590;BME280;2307;48.448;9.216;2023-02-20T01:59:08;96506.25;;;6.75;100.00
4590;BME280;2307;48.448;9.216;2023-02-20T02:01:36;96498.28;;;6.68;100.00
4590;BME280;2307;48.448;9.216;2023-02-20T02:04:03;96503.25;;;6.78;100.00
4590;BME280;2307;48.448;9.216;2023-02-20T02:06:31;96490.22;;;6.70;100.00
4590;BME280;2307;48.448;9.216;2023-02-20T02:09:02;96486.34;;;6.66;100.00
4590;BME280;2307;48.448;9.216;2023-02-20T02:11:31;96489.97;;;6.65;100.00
4590;BME280;2307;48.448;9.216;2023-02-20T02:13:57;96486.69;;;6.63;100.00
4590;BME280;2307;48.448;9.216;2023-02-20T02:16:29;96499.19;;;6.61;100.00
4590;BME280;2307;48.448;9.216;2023-02-20T02:19:03;96491.50;;;6.59;100.00
4590;BME280;2307;48.448;9.216;2023-02-20T02:21:40;96485.53;;;6.51;100.00
4590;BME280;2307;48.448;9.216;2023-02-20T02:24:23;96480.47;;;6.49;100.00
4590;BME280;2307;48.448;9.216;2023-02-20T02:27:05;96472.03;;;6.54;100.00
4590;BME280;2307;48.448;9.216;2023-02-20T02:32:28;96486.19;;;6.53;100.00
4590;BME280;2307;48.448;9.216;2023-02-20T02:37:52;96470.34;;;6.46;100.00
4590;BME280;2307;48.448;9.216;2023-02-20T02:40:23;96470.88;;;6.41;100.00
4590;BME280;2307;48.448;9.216;2023-02-20T02:42:54;96456.06;;;6.34;100.00
4590;BME280;2307;48.448;9.216;2023-02-20T02:45:25;96456.22;;;6.32;100.00
4590;BME280;2307;48.448;9.216;2023-02-20T02:47:55;96454.88;;;6.22;100.00
4590;BME280;2307;48.448;9.216;2023-02-20T02:50:22;96448.47;;;6.24;100.00
4590;BME280;2307;48.448;9.216;2023-02-20T02:52:51;96453.97;;;6.29;100.00
4590;BME280;2307;48.448;9.216;2023-02-20T02:55:19;96454.50;;;6.25;100.00
4590;BME280;2307;48.448;9.216;2023-02-20T02:57:46;96467.81;;;6.23;100.00
4590;BME280;2307;48.448;9.216;2023-02-20T03:00:13;96456.75;;;6.28;100.00
4590;BME280;2307;48.448;9.216;2023-02-20T03:02:43;96462.00;;;6.28;100.00
4590;BME280;2307;48.448;9.216;2023-02-20T03:05:12;96465.09;;;6.17;100.00
4590;BME280;2307;48.448;9.216;2023-02-20T03:07:40;96472.81;;;6.18;100.00
4590;BME280;2307;48.448;9.216;2023-02-20T03:10:11;96480.84;;;6.17;100.00
4590;BME280;2307;48.448;9.216;2023-02-20T03:12:40;96480.38;;;6.13;100.00
4590;BME280;2307;48.448;9.216;2023-02-20T03:15:13;96476.13;;;6.12;100.00
4590;BME280;2307;48.448;9.216;2023-02-20T03:17:58;96483.72;;;6.22;100.00
4590;BME280;2307;48.448;9.216;2023-02-20T03:20:30;96489.22;;;6.12;100.00
4590;BME280;2307;48.448;9.216;2023-02-20T03:22:57;96476.13;;;6.12;100.00
4590;BME280;2307;48.448;9.216;2023-02-20T03:25:26;96474.69;;;6.10;100.00
4590;BME280;2307;48.448;9.216;2023-02-20T03:27:54;96478.75;;;6.12;100.00
4590;BME280;2307;48.448;9.216;2023-02-20T03:30:23;96467.00;;;6.08;100.00
4590;BME280;2307;48.448;9.216;2023-02-20T03:32:53;96465.09;;;6.02;100.00
4590;BME280;2307;48.448;9.216;2023-02-20T03:35:39;96456.53;;;6.08;100.00
4590;BME280;2307;48.448;9.216;2023-02-20T03:38:26;96463.63;;;6.00;100.00
4590;BME280;2307;48.448;9.216;2023-02-20T03:41:13;96453.59;;;6.03;100.00
4590;BME280;2307;48.448;9.216;2023-02-20T03:43:58;96460.03;;;6.01;100.00
4590;BME280;2307;48.448;9.216;2023-02-20T03:46:25;96468.63;;;5.95;100.00
4590;BME280;2307;48.448;9.216;2023-02-20T03:48:53;96470.78;;;5.91;100.00
4590;BME280;2307;48.448;9.216;2023-02-20T03:51:22;96473.75;;;5.88;100.00
4590;BME280;2307;48.448;9.216;2023-02-20T03:53:47;96474.38;;;5.90;100.00
4590;BME280;2307;48.448;9.216;2023-02-20T03:56:15;96472.69;;;5.97;100.00
4590;BME280;2307;48.448;9.216;2023-02-20T03:58:45;96462.91;;;6.06;100.00
4590;BME280;2307;48.448;9.216;2023-02-20T04:01:12;96461.66;;;6.02;100.00
4590;BME280;2307;48.448;9.216;2023-02-20T04:03:42;96460.66;;;5.88;100.00
4590;BME280;2307;48.448;9.216;2023-02-20T04:06:10;96458.88;;;5.80;100.00
4590;BME280;2307;48.448;9.216;2023-02-20T04:08:38;96458.09;;;5.80;100.00
4590;BME280;2307;48.448;9.216;2023-02-20T04:11:08;96451.56;;;5.76;100.00
4590;BME280;2307;48.448;9.216;2023-02-20T04:13:36;96464.31;;;5.79;100.00
4590;BME280;2307;48.448;9.216;2023-02-20T04:16:04;96471.81;;;5.82;100.00
4590;BME280;2307;48.448;9.216;2023-02-20T04:18:31;96466.88;;;5.87;100.00
4590;BME280;2307;48.448;9.216;2023-02-20T04:20:59;96456.97;;;5.74;100.00
4590;BME280;2307;48.448;9.216;2023-02-20T04:23:26;96450.66;;;5.69;100.00
4590;BME280;2307;48.448;9.216;2023-02-20T04:25:56;96451.94;;;5.73;100.00
4590;BME280;2307;48.448;9.216;2023-02-20T04:28:24;96450.75;;;5.75;100.00
4590;BME280;2307;48.448;9.216;2023-02-20T04:30:53;96448.31;;;5.74;100.00
4590;BME280;2307;48.448;9.216;2023-02-20T04:33:19;96454.56;;;5.73;100.00
4590;BME280;2307;48.448;9.216;2023-02-20T04:35:46;96448.66;;;5.71;100.00
4590;BME280;2307;48.448;9.216;2023-02-20T04:38:13;96455.28;;;5.67;100.00
4590;BME280;2307;48.448;9.216;2023-02-20T04:40:39;96447.75;;;5.64;100.00
4590;BME280;2307;48.448;9.216;2023-02-20T04:43:06;96441.03;;;5.61;100.00
4590;BME280;2307;48.448;9.216;2023-02-20T04:45:32;96436.00;;;5.60;100.00
4590;BME280;2307;48.448;9.216;2023-02-20T04:48:00;96428.41;;;5.65;100.00
4590;BME280;2307;48.448;9.216;2023-02-20T04:50:27;96434.56;;;5.72;100.00
4590;BME280;2307;48.448;9.216;2023-02-20T04:52:53;96430.31;;;5.71;100.00
4590;BME280;2307;48.448;9.216;2023-02-20T04:55:20;96435.03;;;5.75;100.00
4590;BME280;2307;48.448;9.216;2023-02-20T04:57:46;96430.16;;;5.72;100.00
4590;BME280;2307;48.448;9.216;2023-02-20T05:00:13;96428.03;;;5.68;100.00
4590;BME280;2307;48.448;9.216;2023-02-20T05:02:40;96439.00;;;5.71;100.00
4590;BME280;2307;48.448;9.216;2023-02-20T05:05:14;96428.50;;;5.71;100.00
4590;BME280;2307;48.448;9.216;2023-02-20T05:07:40;96423.00;;;5.81;100.00
4590;BME280;2307;48.448;9.216;2023-02-20T05:10:07;96432.03;;;5.78;100.00
4590;BME280;2307;48.448;9.216;2023-02-20T05:12:33;96430.41;;;5.63;100.00
4590;BME280;2307;48.448;9.216;2023-02-20T05:14:59;96427.34;;;5.74;100.00
4590;BME280;2307;48.448;9.216;2023-02-20T05:17:26;96436.66;;;5.76;100.00
4590;BME280;2307;48.448;9.216;2023-02-20T05:19:52;96427.00;;;5.77;100.00
4590;BME280;2307;48.448;9.216;2023-02-20T05:22:20;96434.22;;;5.75;100.00
4590;BME280;2307;48.448;9.216;2023-02-20T05:24:47;96432.25;;;5.77;100.00
4590;BME280;2307;48.448;9.216;2023-02-20T05:27:14;96437.75;;;5.82;100.00
4590;BME280;2307;48.448;9.216;2023-02-20T05:29:44;96440.38;;;5.82;100.00
4590;BME280;2307;48.448;9.216;2023-02-20T05:32:11;96436.75;;;5.83;100.00
4590;BME280;2307;48.448;9.216;2023-02-20T05:34:37;96434.66;;;5.78;100.00
4590;BME280;2307;48.448;9.216;2023-02-20T05:37:04;96442.72;;;5.77;100.00
4590;BME280;2307;48.448;9.216;2023-02-20T05:39:31;96446.34;;;5.76;100.00
4590;BME280;2307;48.448;9.216;2023-02-20T05:41:58;96441.25;;;5.74;100.00
4590;BME280;2307;48.448;9.216;2023-02-20T05:44:24;96435.56;;;5.71;100.00
4590;BME280;2307;48.448;9.216;2023-02-20T05:46:50;96438.44;;;5.61;100.00
4590;BME280;2307;48.448;9.216;2023-02-20T05:49:18;96433.13;;;5.55;100.00
4590;BME280;2307;48.448;9.216;2023-02-20T05:51:44;96438.59;;;5.45;100.00
4590;BME280;2307;48.448;9.216;2023-02-20T05:54:11;96429.06;;;5.29;100.00
4590;BME280;2307;48.448;9.216;2023-02-20T05:56:41;96431.00;;;5.35;100.00
4590;BME280;2307;48.448;9.216;2023-02-20T05:59:07;96426.72;;;5.34;100.00
4590;BME280;2307;48.448;9.216;2023-02-20T06:01:34;96428.88;;;5.31;100.00
4590;BME280;2307;48.448;9.216;2023-02-20T06:04:00;96427.00;;;5.40;100.00
4590;BME280;2307;48.448;9.216;2023-02-20T06:06:30;96434.00;;;5.47;100.00
4590;BME280;2307;48.448;9.216;2023-02-20T06:08:57;96427.50;;;5.58;100.00
4590;BME280;2307;48.448;9.216;2023-02-20T06:11:23;96428.75;;;5.62;100.00
4590;BME280;2307;48.448;9.216;2023-02-20T06:13:51;96428.41;;;5.65;100.00
4590;BME280;2307;48.448;9.216;2023-02-20T06:16:20;96422.13;;;5.74;100.00
4590;BME280;2307;48.448;9.216;2023-02-20T06:18:47;96425.94;;;5.86;100.00
4590;BME280;2307;48.448;9.216;2023-02-20T06:21:13;96427.63;;;5.79;100.00
4590;BME280;2307;48.448;9.216;2023-02-20T06:23:41;96421.94;;;5.90;100.00
4590;BME280;2307;48.448;9.216;2023-02-20T06:26:10;96426.66;;;5.95;100.00
4590;BME280;2307;48.448;9.216;2023-02-20T06:28:36;96435.09;;;6.05;100.00
4590;BME280;2307;48.448;9.216;2023-02-20T06:31:04;96437.69;;;5.90;100.00
4590;BME280;2307;48.448;9.216;2023-02-20T06:33:31;96433.09;;;5.92;100.00
4590;BME280;2307;48.448;9.216;2023-02-20T06:35:58;96444.19;;;5.94;100.00
4590;BME280;2307;48.448;9.216;2023-02-20T06:38:24;96436.25;;;6.02;100.00
4590;BME280;2307;48.448;9.216;2023-02-20T06:40:51;96447.53;;;6.03;100.00
4590;BME280;2307;48.448;9.216;2023-02-20T06:43:17;96447.91;;;6.00;100.00
4590;BME280;2307;48.448;9.216;2023-02-20T06:45:44;96443.47;;;6.00;100.00
4590;BME280;2307;48.448;9.216;2023-02-20T06:48:12;96444.09;;;5.87;100.00
4590;BME280;2307;48.448;9.216;2023-02-20T06:50:39;96436.69;;;5.91;100.00
4590;BME280;2307;48.448;9.216;2023-02-20T06:53:06;96443.84;;;5.97;100.00
4590;BME280;2307;48.448;9.216;2023-02-20T06:55:32;96445.13;;;5.86;100.00
4590;BME280;2307;48.448;9.216;2023-02-20T06:57:59;96447.88;;;5.85;100.00
4590;BME280;2307;48.448;9.216;2023-02-20T07:00:25;96447.41;;;5.81;100.00
4590;BME280;2307;48.448;9.216;2023-02-20T07:02:52;96449.94;;;5.75;100.00
4590;BME280;2307;48.448;9.216;2023-02-20T07:05:19;96456.63;;;5.77;100.00
4590;BME280;2307;48.448;9.216;2023-02-20T07:07:48;96455.53;;;5.72;100.00
4590;BME280;2307;48.448;9.216;2023-02-20T07:10:14;96450.09;;;5.59;100.00
4590;BME280;2307;48.448;9.216;2023-02-20T07:12:41;96459.13;;;5.71;100.00
4590;BME280;2307;48.448;9.216;2023-02-20T07:15:08;96457.06;;;5.66;100.00
4590;BME280;2307;48.448;9.216;2023-02-20T07:17:35;96464.47;;;5.63;100.00
4590;BME280;2307;48.448;9.216;2023-02-20T07:20:02;96466.16;;;5.56;100.00
4590;BME280;2307;48.448;9.216;2023-02-20T07:22:30;96462.00;;;5.61;100.00
4590;BME280;2307;48.448;9.216;2023-02-20T07:24:57;96462.38;;;5.58;100.00
4590;BME280;2307;48.448;9.216;2023-02-20T07:27:23;96459.75;;;5.58;100.00
4590;BME280;2307;48.448;9.216;2023-02-20T07:29:50;96455.94;;;5.46;100.00
4590;BME280;2307;48.448;9.216;2023-02-20T07:32:16;96470.56;;;5.41;100.00
4590;BME280;2307;48.448;9.216;2023-02-20T07:34:44;96468.31;;;5.52;100.00
4590;BME280;2307;48.448;9.216;2023-02-20T07:37:11;96463.72;;;5.54;100.00
4590;BME280;2307;48.448;9.216;2023-02-20T07:39:39;96459.13;;;5.56;100.00
4590;BME280;2307;48.448;9.216;2023-02-20T07:42:05;96455.69;;;5.56;100.00
4590;BME280;2307;48.448;9.216;2023-02-20T07:44:32;96461.50;;;5.66;100.00
4590;BME280;2307;48.448;9.216;2023-02-20T07:46:59;96463.41;;;5.72;100.00
4590;BME280;2307;48.448;9.216;2023-02-20T07:49:25;96462.16;;;5.82;100.00
4590;BME280;2307;48.448;9.216;2023-02-20T07:51:51;96465.75;;;5.81;100.00
4590;BME280;2307;48.448;9.216;2023-02-20T07:54:18;96468.94;;;5.77;100.00
4590;BME280;2307;48.448;9.216;2023-02-20T07:56:46;96468.03;;;5.84;100.00
4590;BME280;2307;48.448;9.216;2023-02-20T07:59:12;96465.00;;;5.96;100.00
4590;BME280;2307;48.448;9.216;2023-02-20T08:01:38;96476.94;;;5.98;100.00
4590;BME280;2307;48.448;9.216;2023-02-20T08:04:05;96482.28;;;6.05;100.00
4590;BME280;2307;48.448;9.216;2023-02-20T08:06:32;96481.84;;;5.78;100.00
4590;BME280;2307;48.448;9.216;2023-02-20T08:08:58;96468.94;;;5.77;100.00
4590;BME280;2307;48.448;9.216;2023-02-20T08:11:25;96469.97;;;5.68;100.00
4590;BME280;2307;48.448;9.216;2023-02-20T08:13:53;96463.38;;;5.57;100.00
4590;BME280;2307;48.448;9.216;2023-02-20T08:16:19;96462.91;;;5.54;100.00
4590;BME280;2307;48.448;9.216;2023-02-20T08:18:46;96460.41;;;5.60;100.00
4590;BME280;2307;48.448;9.216;2023-02-20T08:21:12;96458.16;;;5.72;100.00
4590;BME280;2307;48.448;9.216;2023-02-20T08:23:39;96458.44;;;5.77;100.00
4590;BME280;2307;48.448;9.216;2023-02-20T08:26:05;96455.41;;;5.88;100.00
4590;BME280;2307;48.448;9.216;2023-02-20T08:28:31;96448.47;;;5.95;100.00
4590;BME280;2307;48.448;9.216;2023-02-20T08:30:59;96445.00;;;6.09;100.00
4590;BME280;2307;48.448;9.216;2023-02-20T08:33:26;96449.09;;;6.26;100.00
4590;BME280;2307;48.448;9.216;2023-02-20T08:35:52;96444.00;;;6.39;100.00
4590;BME280;2307;48.448;9.216;2023-02-20T08:38:29;96449.06;;;6.56;100.00
4590;BME280;2307;48.448;9.216;2023-02-20T08:40:56;96446.59;;;6.69;100.00
4590;BME280;2307;48.448;9.216;2023-02-20T08:43:23;96448.97;;;6.85;100.00
4590;BME280;2307;48.448;9.216;2023-02-20T08:45:51;96434.84;;;6.86;100.00
4590;BME280;2307;48.448;9.216;2023-02-20T08:48:19;96427.88;;;6.93;100.00
4590;BME280;2307;48.448;9.216;2023-02-20T08:50:46;96432.81;;;7.03;100.00
4590;BME280;2307;48.448;9.216;2023-02-20T08:53:12;96434.56;;;7.17;100.00
4590;BME280;2307;48.448;9.216;2023-02-20T08:55:39;96427.16;;;7.27;100.00
4590;BME280;2307;48.448;9.216;2023-02-20T08:58:05;96423.22;;;7.37;100.00
4590;BME280;2307;48.448;9.216;2023-02-20T09:00:32;96433.84;;;7.51;100.00
4590;BME280;2307;48.448;9.216;2023-02-20T09:02:58;96426.19;;;7.56;98.63
4590;BME280;2307;48.448;9.216;2023-02-20T09:05:26;96422.25;;;7.66;97.56
4590;BME280;2307;48.448;9.216;2023-02-20T09:07:52;96415.06;;;7.81;94.39
4590;BME280;2307;48.448;9.216;2023-02-20T09:10:19;96416.28;;;7.79;95.49
4590;BME280;2307;48.448;9.216;2023-02-20T09:12:47;96408.13;;;7.74;96.42
4590;BME280;2307;48.448;9.216;2023-02-20T09:15:13;96405.16;;;7.83;95.41
4590;BME280;2307;48.448;9.216;2023-02-20T09:17:42;96401.34;;;7.86;93.11
4590;BME280;2307;48.448;9.216;2023-02-20T09:20:08;96394.47;;;7.85;91.76
4590;BME280;2307;48.448;9.216;2023-02-20T09:22:36;96399.53;;;7.93;92.89
4590;BME280;2307;48.448;9.216;2023-02-20T09:25:03;96392.97;;;8.10;90.72
4590;BME280;2307;48.448;9.216;2023-02-20T09:27:30;96398.84;;;8.12;88.21
4590;BME280;2307;48.448;9.216;2023-02-20T09:29:57;96396.25;;;8.19;88.33
4590;BME280;2307;48.448;9.216;2023-02-20T09:32:23;96394.28;;;8.27;88.06
4590;BME280;2307;48.448;9.216;2023-02-20T09:34:50;96393.16;;;8.36;86.20
4590;BME280;2307;48.448;9.216;2023-02-20T09:37:16;96395.16;;;8.41;83.46
4590;BME280;2307;48.448;9.216;2023-02-20T09:39:44;96397.22;;;8.45;82.59
4590;BME280;2307;48.448;9.216;2023-02-20T09:42:15;96386.75;;;8.59;86.72
4590;BME280;2307;48.448;9.216;2023-02-20T09:44:49;96386.56;;;8.67;81.48
4590;BME280;2307;48.448;9.216;2023-02-20T09:47:23;96383.56;;;8.83;78.71
4590;BME280;2307;48.448;9.216;2023-02-20T09:49:52;96382.56;;;8.84;79.98
4590;BME280;2307;48.448;9.216;2023-02-20T09:52:22;96385.41;;;9.02;78.34
4590;BME280;2307;48.448;9.216;2023-02-20T09:54:52;96376.72;;;9.08;82.30
4590;BME280;2307;48.448;9.216;2023-02-20T09:57:22;96374.66;;;9.10;81.83
4590;BME280;2307;48.448;9.216;2023-02-20T10:00:02;96382.59;;;9.17;83.98
4590;BME280;2307;48.448;9.216;2023-02-20T10:02:32;96377.53;;;9.22;78.73
4590;BME280;2307;48.448;9.216;2023-02-20T10:05:00;96375.91;;;9.27;81.21
4590;BME280;2307;48.448;9.216;2023-02-20T10:07:29;96380.38;;;9.33;82.85
4590;BME280;2307;48.448;9.216;2023-02-20T10:09:58;96379.78;;;9.38;80.16
4590;BME280;2307;48.448;9.216;2023-02-20T10:12:37;96368.19;;;9.45;79.39
4590;BME280;2307;48.448;9.216;2023-02-20T10:15:09;96369.00;;;9.52;79.42
4590;BME280;2307;48.448;9.216;2023-02-20T10:17:40;96368.59;;;9.62;81.91
4590;BME280;2307;48.448;9.216;2023-02-20T10:20:10;96362.91;;;9.72;83.03
4590;BME280;2307;48.448;9.216;2023-02-20T10:22:38;96366.34;;;9.92;79.30
4590;BME280;2307;48.448;9.216;2023-02-20T10:25:10;96370.38;;;9.94;77.95
4590;BME280;2307;48.448;9.216;2023-02-20T10:27:41;96372.59;;;10.04;78.42
4590;BME280;2307;48.448;9.216;2023-02-20T10:30:13;96368.47;;;10.28;77.47
4590;BME280;2307;48.448;9.216;2023-02-20T10:32:41;96368.25;;;10.36;74.87
4590;BME280;2307;48.448;9.216;2023-02-20T10:35:10;96371.72;;;10.36;73.06
4590;BME280;2307;48.448;9.216;2023-02-20T10:37:39;96363.41;;;10.26;70.84
4590;BME280;2307;48.448;9.216;2023-02-20T10:40:10;96368.47;;;10.28;72.22
4590;BME280;2307;48.448;9.216;2023-02-20T10:42:40;96368.66;;;10.39;70.62
4590;BME280;2307;48.448;9.216;2023-02-20T10:45:10;96377.00;;;10.36;70.73
4590;BME280;2307;48.448;9.216;2023-02-20T10:47:41;96382.25;;;10.43;71.67
4590;BME280;2307;48.448;9.216;2023-02-20T10:50:11;96374.13;;;10.38;72.38
4590;BME280;2307;48.448;9.216;2023-02-20T10:52:45;96375.59;;;10.34;74.19
4590;BME280;2307;48.448;9.216;2023-02-20T10:55:13;96368.38;;;10.54;76.45
4590;BME280;2307;48.448;9.216;2023-02-20T10:57:43;96378.06;;;10.66;73.09
4590;BME280;2307;48.448;9.216;2023-02-20T11:00:12;96363.13;;;10.85;69.70
4590;BME280;2307;48.448;9.216;2023-02-20T11:02:43;96352.66;;;11.03;68.66
4590;BME280;2307;48.448;9.216;2023-02-20T11:05:11;96352.00;;;11.33;67.98
4590;BME280;2307;48.448;9.216;2023-02-20T11:07:38;96353.47;;;11.53;66.82
4590;BME280;2307;48.448;9.216;2023-02-20T11:10:05;96343.47;;;11.80;63.11
4590;BME280;2307;48.448;9.216;2023-02-20T11:12:33;96345.91;;;12.00;61.34
4590;BME280;2307;48.448;9.216;2023-02-20T11:15:04;96350.56;;;12.22;59.33
4590;BME280;2307;48.448;9.216;2023-02-20T11:17:31;96348.84;;;12.46;59.99
4590;BME280;2307;48.448;9.216;2023-02-20T11:19:58;96345.31;;;12.52;57.37
4590;BME280;2307;48.448;9.216;2023-02-20T11:22:39;96341.03;;;12.51;56.16
4590;BME280;2307;48.448;9.216;2023-02-20T11:25:16;96350.59;;;12.70;56.05
4590;BME280;2307;48.448;9.216;2023-02-20T11:27:43;96337.59;;;12.81;56.29
4590;BME280;2307;48.448;9.216;2023-02-20T11:30:20;96337.75;;;12.97;54.48
4590;BME280;2307;48.448;9.216;2023-02-20T11:32:47;96336.16;;;13.08;53.59
4590;BME280;2307;48.448;9.216;2023-02-20T11:40:42;96325.66;;;13.01;52.67
4590;BME280;2307;48.448;9.216;2023-02-20T11:43:10;96324.84;;;13.01;52.37
4590;BME280;2307;48.448;9.216;2023-02-20T11:45:42;96321.72;;;13.22;52.84
4590;BME280;2307;48.448;9.216;2023-02-20T11:48:09;96308.81;;;13.37;52.13
4590;BME280;2307;48.448;9.216;2023-02-20T11:50:39;96315.75;;;13.50;51.87
4590;BME280;2307;48.448;9.216;2023-02-20T11:53:09;96310.66;;;13.71;50.77
4590;BME280;2307;48.448;9.216;2023-02-20T11:55:42;96313.63;;;14.10;49.16
4590;BME280;2307;48.448;9.216;2023-02-20T11:58:09;96303.34;;;14.13;49.29
4590;BME280;2307;48.448;9.216;2023-02-20T12:00:44;96307.81;;;14.36;48.52
4590;BME280;2307;48.448;9.216;2023-02-20T12:03:12;96304.44;;;14.41;46.09
4590;BME280;2307;48.448;9.216;2023-02-20T12:05:39;96306.44;;;14.22;45.90
4590;BME280;2307;48.448;9.216;2023-02-20T12:08:19;96301.31;;;14.32;45.99
4590;BME280;2307;48.448;9.216;2023-02-20T12:10:49;96288.72;;;14.27;45.25
4590;BME280;2307;48.448;9.216;2023-02-20T12:13:18;96280.25;;;14.54;45.99
4590;BME280;2307;48.448;9.216;2023-02-20T12:15:48;96276.47;;;14.66;45.04
4590;BME280;2307;48.448;9.216;2023-02-20T12:18:29;96280.47;;;14.80;44.19
4590;BME280;2307;48.448;9.216;2023-02-20T12:21:02;96267.97;;;14.81;43.94
4590;BME280;2307;48.448;9.216;2023-02-20T12:23:32;96262.84;;;15.08;44.59
4590;BME280;2307;48.448;9.216;2023-02-20T12:26:08;96262.03;;;15.24;43.26
4590;BME280;2307;48.448;9.216;2023-02-20T12:28:39;96249.84;;;14.95;44.13
4590;BME280;2307;48.448;9.216;2023-02-20T12:31:15;96248.34;;;15.15;43.35
4590;BME280;2307;48.448;9.216;2023-02-20T12:33:49;96244.06;;;15.31;43.60
4590;BME280;2307;48.448;9.216;2023-02-20T12:36:20;96236.44;;;15.39;41.20
4590;BME280;2307;48.448;9.216;2023-02-20T12:38:52;96225.75;;;15.34;42.49
4590;BME280;2307;48.448;9.216;2023-02-20T12:41:26;96220.06;;;15.64;43.25
4590;BME280;2307;48.448;9.216;2023-02-20T12:43:58;96231.31;;;15.50;42.03
4590;BME280;2307;48.448;9.216;2023-02-20T12:46:33;96225.25;;;15.37;42.88
4590;BME280;2307;48.448;9.216;2023-02-20T12:49:07;96217.88;;;15.61;41.70
4590;BME280;2307;48.448;9.216;2023-02-20T12:51:46;96214.69;;;15.81;42.19
4590;BME280;2307;48.448;9.216;2023-02-20T12:54:18;96206.16;;;16.01;41.29
4590;BME280;2307;48.448;9.216;2023-02-20T12:56:52;96211.59;;;16.11;40.85
4590;BME280;2307;48.448;9.216;2023-02-20T12:59:24;96204.41;;;15.89;40.84
4590;BME280;2307;48.448;9.216;2023-02-20T13:01:53;96194.38;;;15.97;41.04
4590;BME280;2307;48.448;9.216;2023-02-20T13:04:22;96196.97;;;16.13;40.61
4590;BME280;2307;48.448;9.216;2023-02-20T13:06:52;96196.19;;;16.18;39.66
4590;BME280;2307;48.448;9.216;2023-02-20T13:09:22;96187.66;;;16.16;39.79
4590;BME280;2307;48.448;9.216;2023-02-20T13:11:50;96187.69;;;16.21;39.31
4590;BME280;2307;48.448;9.216;2023-02-20T13:14:22;96177.94;;;16.05;38.43
4590;BME280;2307;48.448;9.216;2023-02-20T13:16:53;96175.50;;;16.25;38.26
4590;BME280;2307;48.448;9.216;2023-02-20T13:19:22;96172.94;;;16.35;37.85
4590;BME280;2307;48.448;9.216;2023-02-20T13:21:51;96159.28;;;16.31;37.26
4590;BME280;2307;48.448;9.216;2023-02-20T13:24:29;96160.66;;;16.34;37.70
4590;BME280;2307;48.448;9.216;2023-02-20T13:26:56;96159.13;;;16.43;38.11
4590;BME280;2307;48.448;9.216;2023-02-20T13:29:23;96150.97;;;16.81;38.42
4590;BME280;2307;48.448;9.216;2023-02-20T13:31:53;96138.91;;;16.74;36.04
4590;BME280;2307;48.448;9.216;2023-02-20T13:34:28;96139.16;;;16.72;36.15
4590;BME280;2307;48.448;9.216;2023-02-20T13:36:54;96127.47;;;16.78;35.87
4590;BME280;2307;48.448;9.216;2023-02-20T13:39:34;96133.63;;;16.84;36.09
4590;BME280;2307;48.448;9.216;2023-02-20T13:42:01;96122.56;;;16.65;37.12